sensor_id;sensor_type;location;lat;lon;timestamp;temperature;humidity
5938;DHT22;2994;51.220;4.412;2022-11-20T00:01:59;7.34;64.08
5938;DHT22;2994;51.220;4.412;2022-11-20T00:04:25;7.31;63.75
5938;DHT22;2994;51.220;4.412;2022-11-20T00:06:50;7.33;63.55
5938;DHT22;2994;51.220;4.412;2022-11-20T00:09:15;7.29;63.60
5938;DHT22;2994;51.220;4.412;2022-11-20T00:11:41;7.25;63.81
5938;DHT22;2994;51.220;4.412;2022-11-20T00:14:06;7.28;64.26
5938;DHT22;2994;51.220;4.412;2022-11-20T00:16:32;7.30;64.17
5938;DHT22;2994;51.220;4.412;2022-11-20T00:18:58;7.26;63.82
5938;DHT22;2994;51.220;4.412;2022-11-20T00:21:28;7.27;63.94
5938;DHT22;2994;51.220;4.412;2022-11-20T00:23:55;7.28;64.22
5938;DHT22;2994;51.220;4.412;2022-11-20T00:26:22;7.30;63.75
5938;DHT22;2994;51.220;4.412;2022-11-20T00:28:52;7.33;63.95
5938;DHT22;2994;51.220;4.412;2022-11-20T00:31:18;7.33;63.99
5938;DHT22;2994;51.220;4.412;2022-11-20T00:33:44;7.33;64.37
5938;DHT22;2994;51.220;4.412;2022-11-20T00:36:13;7.33;64.14
5938;DHT22;2994;51.220;4.412;2022-11-20T00:38:38;7.31;63.69
5938;DHT22;2994;51.220;4.412;2022-11-20T00:41:06;7.30;63.95
5938;DHT22;2994;51.220;4.412;2022-11-20T00:43:32;7.33;63.98
5938;DHT22;2994;51.220;4.412;2022-11-20T00:46:04;7.35;63.98
5938;DHT22;2994;51.220;4.412;2022-11-20T00:48:31;7.35;64.21
5938;DHT22;2994;51.220;4.412;2022-11-20T00:50:57;7.32;64.41
5938;DHT22;2994;51.220;4.412;2022-11-20T00:53:22;7.16;64.82
5938;DHT22;2994;51.220;4.412;2022-11-20T00:58:23;7.11;64.59
5938;DHT22;2994;51.220;4.412;2022-11-20T01:00:49;7.15;64.76
5938;DHT22;2994;51.220;4.412;2022-11-20T01:03:18;7.12;64.91
5938;DHT22;2994;51.220;4.412;2022-11-20T01:05:44;7.11;64.95
5938;DHT22;2994;51.220;4.412;2022-11-20T01:08:09;6.97;65.40
5938;DHT22;2994;51.220;4.412;2022-11-20T01:10:35;7.11;65.05
5938;DHT22;2994;51.220;4.412;2022-11-20T01:13:00;7.15;65.05
5938;DHT22;2994;51.220;4.412;2022-11-20T01:15:44;7.19;64.92
5938;DHT22;2994;51.220;4.412;2022-11-20T01:18:10;7.22;64.85
5938;DHT22;2994;51.220;4.412;2022-11-20T01:20:36;7.23;64.78
5938;DHT22;2994;51.220;4.412;2022-11-20T01:23:02;7.28;64.95
5938;DHT22;2994;51.220;4.412;2022-11-20T01:25:28;7.32;64.73
5938;DHT22;2994;51.220;4.412;2022-11-20T01:27:53;7.31;64.76
5938;DHT22;2994;51.220;4.412;2022-11-20T01:30:19;7.31;64.76
5938;DHT22;2994;51.220;4.412;2022-11-20T01:32:44;7.32;64.64
5938;DHT22;2994;51.220;4.412;2022-11-20T01:35:10;7.33;64.74
5938;DHT22;2994;51.220;4.412;2022-11-20T01:37:35;7.33;65.26
5938;DHT22;2994;51.220;4.412;2022-11-20T01:40:01;7.38;65.10
5938;DHT22;2994;51.220;4.412;2022-11-20T01:42:26;7.23;64.87
5938;DHT22;2994;51.220;4.412;2022-11-20T01:48:14;7.16;64.85
5938;DHT22;2994;51.220;4.412;2022-11-20T01:50:40;7.07;65.27
5938;DHT22;2994;51.220;4.412;2022-11-20T01:53:10;6.99;65.21
5938;DHT22;2994;51.220;4.412;2022-11-20T01:55:42;7.02;65.08
5938;DHT22;2994;51.220;4.412;2022-11-20T01:58:10;7.15;64.98
5938;DHT22;2994;51.220;4.412;2022-11-20T02:00:36;7.19;64.97
5938;DHT22;2994;51.220;4.412;2022-11-20T02:03:06;7.17;64.88
5938;DHT22;2994;51.220;4.412;2022-11-20T02:05:38;7.22;64.84
5938;DHT22;2994;51.220;4.412;2022-11-20T02:08:07;7.24;64.66
5938;DHT22;2994;51.220;4.412;2022-11-20T02:10:33;7.28;64.72
5938;DHT22;2994;51.220;4.412;2022-11-20T02:12:58;7.24;64.95
5938;DHT22;2994;51.220;4.412;2022-11-20T02:15:43;7.29;64.84
5938;DHT22;2994;51.220;4.412;2022-11-20T02:18:09;7.29;64.98
5938;DHT22;2994;51.220;4.412;2022-11-20T02:20:38;7.32;64.93
5938;DHT22;2994;51.220;4.412;2022-11-20T02:23:12;7.34;64.76
5938;DHT22;2994;51.220;4.412;2022-11-20T02:25:39;7.37;64.83
5938;DHT22;2994;51.220;4.412;2022-11-20T02:28:06;7.32;64.88
5938;DHT22;2994;51.220;4.412;2022-11-20T02:30:32;7.22;65.14
5938;DHT22;2994;51.220;4.412;2022-11-20T02:32:58;7.22;65.16
5938;DHT22;2994;51.220;4.412;2022-11-20T02:37:51;7.16;65.33
5938;DHT22;2994;51.220;4.412;2022-11-20T02:40:21;7.14;65.23
5938;DHT22;2994;51.220;4.412;2022-11-20T02:42:47;7.11;65.18
5938;DHT22;2994;51.220;4.412;2022-11-20T02:45:13;7.14;65.11
5938;DHT22;2994;51.220;4.412;2022-11-20T02:47:38;7.00;65.45
5938;DHT22;2994;51.220;4.412;2022-11-20T02:50:05;6.95;65.79
5938;DHT22;2994;51.220;4.412;2022-11-20T02:52:30;7.09;65.67
5938;DHT22;2994;51.220;4.412;2022-11-20T02:54:56;7.08;65.91
5938;DHT22;2994;51.220;4.412;2022-11-20T02:57:21;7.05;66.17
5938;DHT22;2994;51.220;4.412;2022-11-20T02:59:47;6.96;66.36
5938;DHT22;2994;51.220;4.412;2022-11-20T03:02:12;6.86;67.28
5938;DHT22;2994;51.220;4.412;2022-11-20T03:04:38;6.88;67.22
5938;DHT22;2994;51.220;4.412;2022-11-20T03:07:03;6.97;66.86
5938;DHT22;2994;51.220;4.412;2022-11-20T03:09:29;6.98;66.88
5938;DHT22;2994;51.220;4.412;2022-11-20T03:11:54;7.03;66.72
5938;DHT22;2994;51.220;4.412;2022-11-20T03:14:20;7.09;66.81
5938;DHT22;2994;51.220;4.412;2022-11-20T03:16:46;6.93;67.42
5938;DHT22;2994;51.220;4.412;2022-11-20T03:19:12;7.00;67.21
5938;DHT22;2994;51.220;4.412;2022-11-20T03:21:37;7.03;66.99
5938;DHT22;2994;51.220;4.412;2022-11-20T03:24:03;7.05;67.04
5938;DHT22;2994;51.220;4.412;2022-11-20T03:26:29;6.95;67.72
5938;DHT22;2994;51.220;4.412;2022-11-20T03:28:57;6.78;68.52
5938;DHT22;2994;51.220;4.412;2022-11-20T03:31:28;6.86;68.39
5938;DHT22;2994;51.220;4.412;2022-11-20T03:33:54;6.85;68.48
5938;DHT22;2994;51.220;4.412;2022-11-20T03:36:20;6.96;68.09
5938;DHT22;2994;51.220;4.412;2022-11-20T03:38:46;6.99;68.10
5938;DHT22;2994;51.220;4.412;2022-11-20T03:41:14;6.98;68.46
5938;DHT22;2994;51.220;4.412;2022-11-20T03:43:40;6.91;68.69
5938;DHT22;2994;51.220;4.412;2022-11-20T03:46:06;6.93;68.73
5938;DHT22;2994;51.220;4.412;2022-11-20T03:48:32;6.87;68.85
5938;DHT22;2994;51.220;4.412;2022-11-20T03:53:36;6.91;68.81
5938;DHT22;2994;51.220;4.412;2022-11-20T03:56:02;6.83;69.11
5938;DHT22;2994;51.220;4.412;2022-11-20T03:58:27;6.82;68.94
5938;DHT22;2994;51.220;4.412;2022-11-20T04:00:53;6.69;69.10
5938;DHT22;2994;51.220;4.412;2022-11-20T04:03:18;6.79;68.74
5938;DHT22;2994;51.220;4.412;2022-11-20T04:05:44;6.84;68.89
5938;DHT22;2994;51.220;4.412;2022-11-20T04:08:09;6.89;68.91
5938;DHT22;2994;51.220;4.412;2022-11-20T04:10:35;6.86;69.06
5938;DHT22;2994;51.220;4.412;2022-11-20T04:13:00;6.94;68.96
5938;DHT22;2994;51.220;4.412;2022-11-20T04:15:25;6.96;68.89
5938;DHT22;2994;51.220;4.412;2022-11-20T04:17:51;7.01;69.04
5938;DHT22;2994;51.220;4.412;2022-11-20T04:20:16;7.05;68.53
5938;DHT22;2994;51.220;4.412;2022-11-20T04:22:42;7.04;68.64
5938;DHT22;2994;51.220;4.412;2022-11-20T04:25:08;6.94;69.02
5938;DHT22;2994;51.220;4.412;2022-11-20T04:27:33;6.80;69.90
5938;DHT22;2994;51.220;4.412;2022-11-20T04:29:58;6.95;69.49
5938;DHT22;2994;51.220;4.412;2022-11-20T04:32:24;6.91;69.78
5938;DHT22;2994;51.220;4.412;2022-11-20T04:34:49;6.89;70.03
5938;DHT22;2994;51.220;4.412;2022-11-20T04:37:15;6.97;69.81
5938;DHT22;2994;51.220;4.412;2022-11-20T04:39:40;7.00;69.82
5938;DHT22;2994;51.220;4.412;2022-11-20T04:42:06;6.83;70.51
5938;DHT22;2994;51.220;4.412;2022-11-20T04:44:50;6.58;71.26
5938;DHT22;2994;51.220;4.412;2022-11-20T04:47:15;6.82;70.38
5938;DHT22;2994;51.220;4.412;2022-11-20T04:49:40;6.93;69.95
5938;DHT22;2994;51.220;4.412;2022-11-20T04:52:06;6.97;69.74
5938;DHT22;2994;51.220;4.412;2022-11-20T04:54:31;7.05;69.66
5938;DHT22;2994;51.220;4.412;2022-11-20T04:56:56;7.10;69.32
5938;DHT22;2994;51.220;4.412;2022-11-20T04:59:22;7.08;69.32
5938;DHT22;2994;51.220;4.412;2022-11-20T05:01:47;7.10;69.36
5938;DHT22;2994;51.220;4.412;2022-11-20T05:04:13;7.10;69.30
5938;DHT22;2994;51.220;4.412;2022-11-20T05:06:38;7.09;69.25
5938;DHT22;2994;51.220;4.412;2022-11-20T05:09:04;7.10;68.98
5938;DHT22;2994;51.220;4.412;2022-11-20T05:11:29;7.10;68.86
5938;DHT22;2994;51.220;4.412;2022-11-20T05:13:58;7.14;68.74
5938;DHT22;2994;51.220;4.412;2022-11-20T05:16:24;7.09;69.07
5938;DHT22;2994;51.220;4.412;2022-11-20T05:18:51;6.89;70.04
5938;DHT22;2994;51.220;4.412;2022-11-20T05:21:17;6.93;69.93
5938;DHT22;2994;51.220;4.412;2022-11-20T05:23:43;7.00;69.63
5938;DHT22;2994;51.220;4.412;2022-11-20T05:26:14;7.05;69.68
5938;DHT22;2994;51.220;4.412;2022-11-20T05:28:40;7.08;69.82
5938;DHT22;2994;51.220;4.412;2022-11-20T05:31:13;7.08;69.94
5938;DHT22;2994;51.220;4.412;2022-11-20T05:33:40;7.01;69.91
5938;DHT22;2994;51.220;4.412;2022-11-20T05:36:06;6.97;69.97
5938;DHT22;2994;51.220;4.412;2022-11-20T05:38:32;7.01;69.85
5938;DHT22;2994;51.220;4.412;2022-11-20T05:41:09;7.07;69.78
5938;DHT22;2994;51.220;4.412;2022-11-20T05:43:36;7.12;69.58
5938;DHT22;2994;51.220;4.412;2022-11-20T05:46:04;7.05;70.00
5938;DHT22;2994;51.220;4.412;2022-11-20T05:48:30;7.14;69.71
5938;DHT22;2994;51.220;4.412;2022-11-20T05:50:57;7.13;69.59
5938;DHT22;2994;51.220;4.412;2022-11-20T05:53:23;7.15;69.52
5938;DHT22;2994;51.220;4.412;2022-11-20T05:56:05;7.12;69.60
5938;DHT22;2994;51.220;4.412;2022-11-20T05:58:32;7.16;69.56
5938;DHT22;2994;51.220;4.412;2022-11-20T06:01:10;7.16;69.46
5938;DHT22;2994;51.220;4.412;2022-11-20T06:03:36;7.16;69.35
5938;DHT22;2994;51.220;4.412;2022-11-20T06:06:03;6.95;70.48
5938;DHT22;2994;51.220;4.412;2022-11-20T06:08:29;7.07;69.90
5938;DHT22;2994;51.220;4.412;2022-11-20T06:10:54;7.14;69.83
5938;DHT22;2994;51.220;4.412;2022-11-20T06:13:20;7.11;69.86
5938;DHT22;2994;51.220;4.412;2022-11-20T06:15:52;7.17;69.85
5938;DHT22;2994;51.220;4.412;2022-11-20T06:18:18;6.90;70.74
5938;DHT22;2994;51.220;4.412;2022-11-20T06:20:44;7.04;70.18
5938;DHT22;2994;51.220;4.412;2022-11-20T06:23:09;7.00;70.58
5938;DHT22;2994;51.220;4.412;2022-11-20T06:25:39;6.98;70.79
5938;DHT22;2994;51.220;4.412;2022-11-20T06:28:05;6.97;70.62
5938;DHT22;2994;51.220;4.412;2022-11-20T06:30:30;6.97;70.75
5938;DHT22;2994;51.220;4.412;2022-11-20T06:32:56;6.83;71.59
5938;DHT22;2994;51.220;4.412;2022-11-20T06:35:21;6.88;71.47
5938;DHT22;2994;51.220;4.412;2022-11-20T06:37:46;7.03;70.86
5938;DHT22;2994;51.220;4.412;2022-11-20T06:40:12;7.11;70.56
5938;DHT22;2994;51.220;4.412;2022-11-20T06:42:38;6.98;71.16
5938;DHT22;2994;51.220;4.412;2022-11-20T06:45:03;6.97;71.19
5938;DHT22;2994;51.220;4.412;2022-11-20T06:47:29;6.84;71.87
5938;DHT22;2994;51.220;4.412;2022-11-20T06:49:55;6.80;72.11
5938;DHT22;2994;51.220;4.412;2022-11-20T06:52:20;6.81;72.15
5938;DHT22;2994;51.220;4.412;2022-11-20T06:54:46;6.75;72.23
5938;DHT22;2994;51.220;4.412;2022-11-20T06:57:11;6.66;72.85
5938;DHT22;2994;51.220;4.412;2022-11-20T06:59:36;6.88;71.87
5938;DHT22;2994;51.220;4.412;2022-11-20T07:02:02;6.89;71.90
5938;DHT22;2994;51.220;4.412;2022-11-20T07:04:27;6.93;71.81
5938;DHT22;2994;51.220;4.412;2022-11-20T07:06:52;7.02;71.52
5938;DHT22;2994;51.220;4.412;2022-11-20T07:09:18;7.08;71.41
5938;DHT22;2994;51.220;4.412;2022-11-20T07:11:43;7.12;71.46
5938;DHT22;2994;51.220;4.412;2022-11-20T07:14:09;7.07;71.80
5938;DHT22;2994;51.220;4.412;2022-11-20T07:16:34;6.95;72.38
5938;DHT22;2994;51.220;4.412;2022-11-20T07:18:59;7.10;71.66
5938;DHT22;2994;51.220;4.412;2022-11-20T07:21:25;7.08;71.92
5938;DHT22;2994;51.220;4.412;2022-11-20T07:23:50;7.15;71.56
5938;DHT22;2994;51.220;4.412;2022-11-20T07:26:15;7.17;71.55
5938;DHT22;2994;51.220;4.412;2022-11-20T07:28:43;7.12;71.76
5938;DHT22;2994;51.220;4.412;2022-11-20T07:31:09;7.20;71.43
5938;DHT22;2994;51.220;4.412;2022-11-20T07:33:34;7.10;71.87
5938;DHT22;2994;51.220;4.412;2022-11-20T07:36:00;7.25;71.54
5938;DHT22;2994;51.220;4.412;2022-11-20T07:38:25;7.29;71.44
5938;DHT22;2994;51.220;4.412;2022-11-20T07:40:54;7.35;71.41
5938;DHT22;2994;51.220;4.412;2022-11-20T07:43:20;7.37;71.31
5938;DHT22;2994;51.220;4.412;2022-11-20T07:45:49;7.37;71.35
5938;DHT22;2994;51.220;4.412;2022-11-20T07:48:14;7.38;71.39
5938;DHT22;2994;51.220;4.412;2022-11-20T07:50:40;7.37;71.36
5938;DHT22;2994;51.220;4.412;2022-11-20T07:53:05;7.22;72.10
5938;DHT22;2994;51.220;4.412;2022-11-20T07:55:32;7.31;71.71
5938;DHT22;2994;51.220;4.412;2022-11-20T07:57:57;7.37;71.67
5938;DHT22;2994;51.220;4.412;2022-11-20T08:00:24;7.33;71.92
5938;DHT22;2994;51.220;4.412;2022-11-20T08:02:50;7.40;71.71
5938;DHT22;2994;51.220;4.412;2022-11-20T08:05:16;7.40;71.90
5938;DHT22;2994;51.220;4.412;2022-11-20T08:07:43;7.47;71.77
5938;DHT22;2994;51.220;4.412;2022-11-20T08:10:11;7.44;71.88
5938;DHT22;2994;51.220;4.412;2022-11-20T08:12:44;7.48;71.90
5938;DHT22;2994;51.220;4.412;2022-11-20T08:15:30;7.50;71.91
5938;DHT22;2994;51.220;4.412;2022-11-20T08:18:10;7.59;71.80
5938;DHT22;2994;51.220;4.412;2022-11-20T08:20:38;7.61;71.74
5938;DHT22;2994;51.220;4.412;2022-11-20T08:23:05;7.59;71.94
5938;DHT22;2994;51.220;4.412;2022-11-20T08:25:33;7.64;71.66
5938;DHT22;2994;51.220;4.412;2022-11-20T08:28:03;7.69;71.46
5938;DHT22;2994;51.220;4.412;2022-11-20T08:30:30;7.73;71.43
5938;DHT22;2994;51.220;4.412;2022-11-20T08:33:02;7.75;71.23
5938;DHT22;2994;51.220;4.412;2022-11-20T08:35:28;7.73;71.45
5938;DHT22;2994;51.220;4.412;2022-11-20T08:37:53;7.74;71.57
5938;DHT22;2994;51.220;4.412;2022-11-20T08:40:19;7.77;71.64
5938;DHT22;2994;51.220;4.412;2022-11-20T08:42:49;7.82;71.42
5938;DHT22;2994;51.220;4.412;2022-11-20T08:45:15;7.85;71.30
5938;DHT22;2994;51.220;4.412;2022-11-20T08:47:41;7.85;71.36
5938;DHT22;2994;51.220;4.412;2022-11-20T08:50:08;7.88;71.31
5938;DHT22;2994;51.220;4.412;2022-11-20T08:52:34;7.82;71.45
5938;DHT22;2994;51.220;4.412;2022-11-20T08:54:59;7.90;71.29
5938;DHT22;2994;51.220;4.412;2022-11-20T08:57:25;7.91;71.24
5938;DHT22;2994;51.220;4.412;2022-11-20T09:10:19;8.07;71.27
5938;DHT22;2994;51.220;4.412;2022-11-20T09:13:08;8.12;71.23
5938;DHT22;2994;51.220;4.412;2022-11-20T09:15:56;8.12;71.48
5938;DHT22;2994;51.220;4.412;2022-11-20T09:18:23;8.12;71.35
5938;DHT22;2994;51.220;4.412;2022-11-20T09:24:51;8.12;71.77
5938;DHT22;2994;51.220;4.412;2022-11-20T09:30:50;8.05;72.45
5938;DHT22;2994;51.220;4.412;2022-11-20T09:33:16;8.13;72.41
5938;DHT22;2994;51.220;4.412;2022-11-20T09:35:42;8.11;72.77
5938;DHT22;2994;51.220;4.412;2022-11-20T09:38:09;8.20;72.29
5938;DHT22;2994;51.220;4.412;2022-11-20T09:40:39;8.19;72.58
5938;DHT22;2994;51.220;4.412;2022-11-20T09:46:27;8.23;72.90
5938;DHT22;2994;51.220;4.412;2022-11-20T09:52:04;8.29;73.09
5938;DHT22;2994;51.220;4.412;2022-11-20T09:54:38;8.32;73.17
5938;DHT22;2994;51.220;4.412;2022-11-20T09:57:37;8.31;73.46
5938;DHT22;2994;51.220;4.412;2022-11-20T10:00:05;8.33;73.67
5938;DHT22;2994;51.220;4.412;2022-11-20T10:02:42;8.45;73.44
5938;DHT22;2994;51.220;4.412;2022-11-20T10:05:15;8.44;73.85
5938;DHT22;2994;51.220;4.412;2022-11-20T10:10:44;8.56;73.97
5938;DHT22;2994;51.220;4.412;2022-11-20T10:19:14;8.46;75.39
5938;DHT22;2994;51.220;4.412;2022-11-20T10:27:40;8.55;75.86
5938;DHT22;2994;51.220;4.412;2022-11-20T10:30:14;8.66;75.39
5938;DHT22;2994;51.220;4.412;2022-11-20T10:32:47;8.70;75.60
5938;DHT22;2994;51.220;4.412;2022-11-20T10:37:43;8.85;75.29
5938;DHT22;2994;51.220;4.412;2022-11-20T10:42:46;8.94;75.21
5938;DHT22;2994;51.220;4.412;2022-11-20T10:48:21;8.92;75.86
5938;DHT22;2994;51.220;4.412;2022-11-20T10:53:58;9.00;75.80
5938;DHT22;2994;51.220;4.412;2022-11-20T10:56:35;9.04;75.83
5938;DHT22;2994;51.220;4.412;2022-11-20T11:02:21;9.21;75.68
5938;DHT22;2994;51.220;4.412;2022-11-20T11:04:50;9.21;75.83
5938;DHT22;2994;51.220;4.412;2022-11-20T11:07:24;9.23;75.83
5938;DHT22;2994;51.220;4.412;2022-11-20T11:09:54;9.32;75.81
5938;DHT22;2994;51.220;4.412;2022-11-20T11:12:25;9.31;76.05
5938;DHT22;2994;51.220;4.412;2022-11-20T11:14:54;9.37;75.95
5938;DHT22;2994;51.220;4.412;2022-11-20T11:20:06;9.41;76.13
5938;DHT22;2994;51.220;4.412;2022-11-20T11:22:48;9.47;76.05
5938;DHT22;2994;51.220;4.412;2022-11-20T11:25:30;9.36;76.75
5938;DHT22;2994;51.220;4.412;2022-11-20T11:28:21;9.46;76.33
5938;DHT22;2994;51.220;4.412;2022-11-20T11:30:47;9.61;75.72
5938;DHT22;2994;51.220;4.412;2022-11-20T11:38:54;9.76;75.41
5938;DHT22;2994;51.220;4.412;2022-11-20T11:41:23;9.79;75.60
5938;DHT22;2994;51.220;4.412;2022-11-20T11:43:56;9.83;75.73
5938;DHT22;2994;51.220;4.412;2022-11-20T11:46:55;9.88;75.66
5938;DHT22;2994;51.220;4.412;2022-11-20T11:49:21;9.94;75.46
5938;DHT22;2994;51.220;4.412;2022-11-20T12:00:06;9.96;76.20
5938;DHT22;2994;51.220;4.412;2022-11-20T12:05:57;10.20;75.46
5938;DHT22;2994;51.220;4.412;2022-11-20T12:11:03;10.25;75.46
5938;DHT22;2994;51.220;4.412;2022-11-20T12:13:54;10.28;75.30
5938;DHT22;2994;51.220;4.412;2022-11-20T12:16:27;10.24;75.56
5938;DHT22;2994;51.220;4.412;2022-11-20T12:19:02;10.33;75.37
5938;DHT22;2994;51.220;4.412;2022-11-20T13:00:28;10.57;77.05
5938;DHT22;2994;51.220;4.412;2022-11-20T13:12:22;10.64;77.48
5938;DHT22;2994;51.220;4.412;2022-11-20T13:15:54;10.68;77.67
5938;DHT22;2994;51.220;4.412;2022-11-20T13:18:24;10.66;77.66
5938;DHT22;2994;51.220;4.412;2022-11-20T13:21:12;10.62;78.05
5938;DHT22;2994;51.220;4.412;2022-11-20T13:23:38;10.69;77.84
5938;DHT22;2994;51.220;4.412;2022-11-20T13:26:23;10.57;78.57
5938;DHT22;2994;51.220;4.412;2022-11-20T13:29:11;10.59;78.63
5938;DHT22;2994;51.220;4.412;2022-11-20T13:31:41;10.62;78.46
5938;DHT22;2994;51.220;4.412;2022-11-20T13:34:27;10.51;79.29
5938;DHT22;2994;51.220;4.412;2022-11-20T13:44:25;10.48;79.34
5938;DHT22;2994;51.220;4.412;2022-11-20T13:46:50;10.52;79.37
5938;DHT22;2994;51.220;4.412;2022-11-20T13:49:28;10.55;79.18
5938;DHT22;2994;51.220;4.412;2022-11-20T13:57:50;10.36;80.43
5938;DHT22;2994;51.220;4.412;2022-11-20T14:00:21;10.36;80.47
5938;DHT22;2994;51.220;4.412;2022-11-20T14:06:14;10.43;80.14
5938;DHT22;2994;51.220;4.412;2022-11-20T14:11:33;10.46;80.07
5938;DHT22;2994;51.220;4.412;2022-11-20T14:14:26;10.45;80.25
5938;DHT22;2994;51.220;4.412;2022-11-20T14:17:38;10.39;80.46
5938;DHT22;2994;51.220;4.412;2022-11-20T14:19:40;10.36;80.67
5938;DHT22;2994;51.220;4.412;2022-11-20T14:25:38;10.45;80.43
5938;DHT22;2994;51.220;4.412;2022-11-20T14:28:11;10.50;80.24
5938;DHT22;2994;51.220;4.412;2022-11-20T14:30:49;10.51;80.28
5938;DHT22;2994;51.220;4.412;2022-11-20T14:33:19;10.50;80.43
5938;DHT22;2994;51.220;4.412;2022-11-20T14:35:47;10.48;80.59
5938;DHT22;2994;51.220;4.412;2022-11-20T14:38:20;10.40;81.27
5938;DHT22;2994;51.220;4.412;2022-11-20T14:44:01;10.45;81.14
5938;DHT22;2994;51.220;4.412;2022-11-20T14:47:04;10.50;81.30
5938;DHT22;2994;51.220;4.412;2022-11-20T14:49:41;10.24;82.37
5938;DHT22;2994;51.220;4.412;2022-11-20T14:52:13;10.51;81.34
5938;DHT22;2994;51.220;4.412;2022-11-20T14:55:00;10.53;81.27
5938;DHT22;2994;51.220;4.412;2022-11-20T15:16:27;10.46;82.30
5938;DHT22;2994;51.220;4.412;2022-11-20T15:19:22;10.68;81.43
5938;DHT22;2994;51.220;4.412;2022-11-20T15:25:29;10.75;81.10
5938;DHT22;2994;51.220;4.412;2022-11-20T15:51:29;10.87;81.19
5938;DHT22;2994;51.220;4.412;2022-11-20T16:00:09;10.93;80.98
5938;DHT22;2994;51.220;4.412;2022-11-20T16:02:41;10.98;80.81
5938;DHT22;2994;51.220;4.412;2022-11-20T16:05:16;10.89;81.39
5938;DHT22;2994;51.220;4.412;2022-11-20T16:07:45;11.02;80.72
5938;DHT22;2994;51.220;4.412;2022-11-20T16:10:15;10.90;80.93
5938;DHT22;2994;51.220;4.412;2022-11-20T16:12:43;10.92;81.15
5938;DHT22;2994;51.220;4.412;2022-11-20T16:15:34;10.93;80.90
5938;DHT22;2994;51.220;4.412;2022-11-20T16:28:54;10.77;80.46
5938;DHT22;2994;51.220;4.412;2022-11-20T16:34:07;10.67;80.25
5938;DHT22;2994;51.220;4.412;2022-11-20T16:39:11;10.77;79.55
5938;DHT22;2994;51.220;4.412;2022-11-20T16:46:47;10.86;78.79
5938;DHT22;2994;51.220;4.412;2022-11-20T16:49:26;10.92;77.92
5938;DHT22;2994;51.220;4.412;2022-11-20T16:51:51;10.97;78.02
5938;DHT22;2994;51.220;4.412;2022-11-20T16:54:20;10.98;77.98
5938;DHT22;2994;51.220;4.412;2022-11-20T17:00:41;10.77;78.01
5938;DHT22;2994;51.220;4.412;2022-11-20T17:03:24;10.67;77.70
5938;DHT22;2994;51.220;4.412;2022-11-20T17:05:52;10.72;77.70
5938;DHT22;2994;51.220;4.412;2022-11-20T17:12:24;10.56;77.55
5938;DHT22;2994;51.220;4.412;2022-11-20T17:20:07;10.49;78.00
5938;DHT22;2994;51.220;4.412;2022-11-20T17:23:02;10.56;77.75
5938;DHT22;2994;51.220;4.412;2022-11-20T17:25:49;10.71;77.47
5938;DHT22;2994;51.220;4.412;2022-11-20T17:28:15;10.51;78.14
5938;DHT22;2994;51.220;4.412;2022-11-20T17:30:40;10.68;77.62
5938;DHT22;2994;51.220;4.412;2022-11-20T17:40:47;10.63;77.31
5938;DHT22;2994;51.220;4.412;2022-11-20T17:43:57;10.55;77.31
5938;DHT22;2994;51.220;4.412;2022-11-20T17:53:48;10.65;76.32
5938;DHT22;2994;51.220;4.412;2022-11-20T17:59:29;10.60;76.47
5938;DHT22;2994;51.220;4.412;2022-11-20T18:08:56;10.70;75.66
5938;DHT22;2994;51.220;4.412;2022-11-20T18:22:39;10.71;75.39
5938;DHT22;2994;51.220;4.412;2022-11-20T18:25:08;10.73;75.50
5938;DHT22;2994;51.220;4.412;2022-11-20T18:27:39;10.82;75.40
5938;DHT22;2994;51.220;4.412;2022-11-20T18:30:07;10.83;75.70
5938;DHT22;2994;51.220;4.412;2022-11-20T18:32:33;10.84;75.73
5938;DHT22;2994;51.220;4.412;2022-11-20T18:35:00;10.92;75.55
5938;DHT22;2994;51.220;4.412;2022-11-20T18:37:32;10.92;75.50
5938;DHT22;2994;51.220;4.412;2022-11-20T18:39:57;11.00;75.07
5938;DHT22;2994;51.220;4.412;2022-11-20T18:42:26;11.00;75.04
5938;DHT22;2994;51.220;4.412;2022-11-20T18:45:10;10.95;74.89
5938;DHT22;2994;51.220;4.412;2022-11-20T18:48:05;10.97;75.08
5938;DHT22;2994;51.220;4.412;2022-11-20T18:50:31;11.01;74.83
5938;DHT22;2994;51.220;4.412;2022-11-20T18:52:59;11.00;74.44
5938;DHT22;2994;51.220;4.412;2022-11-20T18:55:30;10.72;75.31
5938;DHT22;2994;51.220;4.412;2022-11-20T18:57:56;10.85;74.90
5938;DHT22;2994;51.220;4.412;2022-11-20T19:00:27;10.80;75.31
5938;DHT22;2994;51.220;4.412;2022-11-20T19:03:02;10.80;75.42
5938;DHT22;2994;51.220;4.412;2022-11-20T19:09:12;10.98;74.80
5938;DHT22;2994;51.220;4.412;2022-11-20T19:11:51;10.87;75.23
5938;DHT22;2994;51.220;4.412;2022-11-20T19:17:06;10.90;75.17
5938;DHT22;2994;51.220;4.412;2022-11-20T19:19:33;10.89;74.99
5938;DHT22;2994;51.220;4.412;2022-11-20T19:21:59;10.88;74.94
5938;DHT22;2994;51.220;4.412;2022-11-20T19:24:28;10.96;74.28
5938;DHT22;2994;51.220;4.412;2022-11-20T19:26:54;10.83;74.92
5938;DHT22;2994;51.220;4.412;2022-11-20T19:29:21;10.88;74.63
5938;DHT22;2994;51.220;4.412;2022-11-20T19:31:46;10.92;74.60
5938;DHT22;2994;51.220;4.412;2022-11-20T19:34:16;10.94;74.62
5938;DHT22;2994;51.220;4.412;2022-11-20T19:36:47;10.78;75.20
5938;DHT22;2994;51.220;4.412;2022-11-20T19:39:47;10.89;74.55
5938;DHT22;2994;51.220;4.412;2022-11-20T19:42:24;10.90;74.59
5938;DHT22;2994;51.220;4.412;2022-11-20T19:44:50;10.89;74.70
5938;DHT22;2994;51.220;4.412;2022-11-20T19:47:15;10.77;75.15
5938;DHT22;2994;51.220;4.412;2022-11-20T19:49:43;10.84;74.78
5938;DHT22;2994;51.220;4.412;2022-11-20T19:52:11;10.78;74.90
5938;DHT22;2994;51.220;4.412;2022-11-20T19:54:40;10.70;75.23
5938;DHT22;2994;51.220;4.412;2022-11-20T19:57:05;10.74;75.09
5938;DHT22;2994;51.220;4.412;2022-11-20T20:02:35;10.71;75.07
5938;DHT22;2994;51.220;4.412;2022-11-20T20:05:04;10.80;74.89
5938;DHT22;2994;51.220;4.412;2022-11-20T20:07:32;10.70;75.31
5938;DHT22;2994;51.220;4.412;2022-11-20T20:09:58;10.65;75.34
5938;DHT22;2994;51.220;4.412;2022-11-20T20:12:23;10.53;75.79
5938;DHT22;2994;51.220;4.412;2022-11-20T20:14:49;10.59;75.54
5938;DHT22;2994;51.220;4.412;2022-11-20T20:17:14;10.73;74.97
5938;DHT22;2994;51.220;4.412;2022-11-20T20:19:40;10.82;74.89
5938;DHT22;2994;51.220;4.412;2022-11-20T20:22:05;10.82;75.02
5938;DHT22;2994;51.220;4.412;2022-11-20T20:24:30;10.77;75.10
5938;DHT22;2994;51.220;4.412;2022-11-20T20:26:56;10.83;74.79
5938;DHT22;2994;51.220;4.412;2022-11-20T20:29:21;10.87;74.70
5938;DHT22;2994;51.220;4.412;2022-11-20T20:31:49;10.86;74.64
5938;DHT22;2994;51.220;4.412;2022-11-20T20:34:15;10.81;74.81
5938;DHT22;2994;51.220;4.412;2022-11-20T20:36:41;10.55;75.93
5938;DHT22;2994;51.220;4.412;2022-11-20T20:39:06;10.69;75.34
5938;DHT22;2994;51.220;4.412;2022-11-20T20:41:34;10.75;75.24
5938;DHT22;2994;51.220;4.412;2022-11-20T20:44:02;10.75;75.22
5938;DHT22;2994;51.220;4.412;2022-11-20T20:47:05;10.67;75.50
5938;DHT22;2994;51.220;4.412;2022-11-20T20:49:33;10.68;75.57
5938;DHT22;2994;51.220;4.412;2022-11-20T20:52:01;10.59;75.73
5938;DHT22;2994;51.220;4.412;2022-11-20T20:54:32;10.71;75.29
5938;DHT22;2994;51.220;4.412;2022-11-20T20:56:57;10.53;76.09
5938;DHT22;2994;51.220;4.412;2022-11-20T20:59:29;10.57;75.81
5938;DHT22;2994;51.220;4.412;2022-11-20T21:01:57;10.55;75.96
5938;DHT22;2994;51.220;4.412;2022-11-20T21:04:25;10.69;75.22
5938;DHT22;2994;51.220;4.412;2022-11-20T21:06:59;10.56;75.67
5938;DHT22;2994;51.220;4.412;2022-11-20T21:09:24;10.56;75.83
5938;DHT22;2994;51.220;4.412;2022-11-20T21:11:50;10.52;75.77
5938;DHT22;2994;51.220;4.412;2022-11-20T21:14:33;10.54;75.60
5938;DHT22;2994;51.220;4.412;2022-11-20T21:17:01;10.44;76.15
5938;DHT22;2994;51.220;4.412;2022-11-20T21:19:41;10.35;76.12
5938;DHT22;2994;51.220;4.412;2022-11-20T21:22:16;10.26;76.67